Time;durP1;ratioP1;P1;durP2;ratioP2;P2;SDS_P1;SDS_P2;PMS_P1;PMS_P2;Temp;Humidity;BMP_temperature;BMP_pressure;BME280_temperature;BME280_humidity;BME280_pressure;Samples;Min_cycle;Max_cycle;Signal;HPM_P1;HPM_P2
2022/05/16 00:00:30;;;;;;;381.40;155.47;;;;;;;;;;5084567;28;20486;-72
2022/05/16 00:03:02;;;;;;;380.17;143.17;;;;;;;;;;5078383;28;20453;-72
2022/05/16 00:05:31;;;;;;;382.33;149.53;;;;;;;;;;5095944;28;20487;-73
2022/05/16 00:07:59;;;;;;;371.83;126.63;;;;;;;;;;5087790;28;20441;-73
2022/05/16 00:10:27;;;;;;;3.03;1.63;;;;;;;;;;5082430;28;20888;-72
2022/05/16 00:12:55;;;;;;;393.93;153.80;;;;;;;;;;5078497;28;20449;-72
2022/05/16 00:15:24;;;;;;;375.60;134.03;;;;;;;;;;5091546;28;20462;-73
2022/05/16 00:17:56;;;;;;;265.83;133.33;;;;;;;;;;5084693;28;20448;-72
2022/05/16 00:20:26;;;;;;;81.17;73.40;;;;;;;;;;5083663;28;20465;-73
2022/05/16 00:22:54;;;;;;;24.03;7.63;;;;;;;;;;5075883;28;20578;-73
2022/05/16 00:25:22;;;;;;;28.57;9.33;;;;;;;;;;5084327;28;20467;-73
2022/05/16 00:27:49;;;;;;;354.03;139.33;;;;;;;;;;5083233;28;20495;-72
2022/05/16 00:30:18;;;;;;;24.90;10.73;;;;;;;;;;5085889;28;20582;-73
2022/05/16 00:32:48;;;;;;;380.87;152.10;;;;;;;;;;5091185;28;20535;-73
2022/05/16 00:35:17;;;;;;;222.73;138.07;;;;;;;;;;5088184;28;20704;-72
2022/05/16 00:37:45;;;;;;;357.63;141.50;;;;;;;;;;5080833;28;20510;-72
2022/05/16 00:40:14;;;;;;;387.60;142.13;;;;;;;;;;5086019;28;20466;-72
2022/05/16 00:42:42;;;;;;;375.27;148.83;;;;;;;;;;5095972;28;20448;-73
2022/05/16 00:45:13;;;;;;;386.53;140.67;;;;;;;;;;5086143;28;20537;-73
2022/05/16 00:47:43;;;;;;;384.07;137.00;;;;;;;;;;5076004;28;20843;-71
2022/05/16 00:50:11;;;;;;;384.73;135.53;;;;;;;;;;5085101;28;20458;-73
2022/05/16 00:52:41;;;;;;;391.77;142.73;;;;;;;;;;5082663;28;20457;-72
2022/05/16 00:55:12;;;;;;;393.53;144.60;;;;;;;;;;5084782;28;20486;-72
2022/05/16 00:57:43;;;;;;;384.37;149.30;;;;;;;;;;5075079;28;20457;-72
2022/05/16 01:00:13;;;;;;;393.03;156.83;;;;;;;;;;5083914;28;20925;-72
2022/05/16 01:05:28;;;;;;;385.07;135.77;;;;;;;;;;5094206;28;20827;-73
2022/05/16 01:08:13;;;;;;;349.97;137.30;;;;;;;;;;5082236;28;20476;-73
2022/05/16 01:10:41;;;;;;;386.63;143.93;;;;;;;;;;5075591;28;20467;-71
2022/05/16 01:13:09;;;;;;;361.40;140.33;;;;;;;;;;5091137;28;20440;-73
2022/05/16 01:15:38;;;;;;;376.27;144.43;;;;;;;;;;5089640;28;20926;-72
2022/05/16 01:18:07;;;;;;;360.73;144.97;;;;;;;;;;5076909;28;20924;-72
2022/05/16 01:20:43;;;;;;;388.73;139.70;;;;;;;;;;5090177;28;20556;-73
2022/05/16 01:23:14;;;;;;;386.20;134.17;;;;;;;;;;5083911;28;20464;-72
2022/05/16 01:25:42;;;;;;;306.80;143.50;;;;;;;;;;5075489;28;20827;-73
2022/05/16 01:28:09;;;;;;;379.27;129.73;;;;;;;;;;5075532;28;20573;-72
2022/05/16 01:30:46;;;;;;;400.10;151.57;;;;;;;;;;5088247;28;20538;-72
2022/05/16 01:33:14;;;;;;;394.30;144.50;;;;;;;;;;5092306;28;20459;-72
2022/05/16 01:35:41;;;;;;;395.73;136.33;;;;;;;;;;5080382;28;20449;-72
2022/05/16 01:38:22;;;;;;;400.43;147.43;;;;;;;;;;5078885;28;20449;-73
2022/05/16 01:40:53;;;;;;;372.67;141.70;;;;;;;;;;5079111;28;20484;-72
2022/05/16 01:43:21;;;;;;;392.50;141.77;;;;;;;;;;5078967;28;20449;-73
2022/05/16 01:45:49;;;;;;;391.63;138.00;;;;;;;;;;5087383;28;20485;-73
2022/05/16 01:48:18;;;;;;;396.07;145.70;;;;;;;;;;5085041;28;20475;-72
2022/05/16 01:50:51;;;;;;;357.80;134.83;;;;;;;;;;5090216;28;20732;-73
2022/05/16 01:53:20;;;;;;;364.80;147.33;;;;;;;;;;5084562;28;20920;-72
2022/05/16 01:55:48;;;;;;;337.57;145.70;;;;;;;;;;5080251;28;20457;-72
2022/05/16 01:58:17;;;;;;;360.17;142.40;;;;;;;;;;5085809;28;20464;-73
2022/05/16 02:00:45;;;;;;;371.50;147.83;;;;;;;;;;5085323;28;20535;-73
2022/05/16 02:03:13;;;;;;;350.10;136.27;;;;;;;;;;5091726;28;20462;-72
2022/05/16 02:05:45;;;;;;;335.43;143.37;;;;;;;;;;5082389;28;20448;-72
2022/05/16 02:08:13;;;;;;;322.67;140.23;;;;;;;;;;5078647;28;20579;-72
2022/05/16 02:10:41;;;;;;;296.87;128.00;;;;;;;;;;5078787;28;20441;-73
2022/05/16 02:13:08;;;;;;;314.57;135.10;;;;;;;;;;5082680;28;20796;-73
2022/05/16 02:15:39;;;;;;;307.70;131.73;;;;;;;;;;5090272;28;20509;-73
2022/05/16 02:18:08;;;;;;;343.93;133.00;;;;;;;;;;5098086;28;20603;-71
2022/05/16 02:20:36;;;;;;;384.50;141.90;;;;;;;;;;5098083;28;20520;-73
2022/05/16 02:25:51;;;;;;;325.77;119.63;;;;;;;;;;5078473;28;20443;-72
2022/05/16 02:28:19;;;;;;;306.80;129.03;;;;;;;;;;5086762;28;20480;-72
2022/05/16 02:30:49;;;;;;;329.97;132.67;;;;;;;;;;5078351;28;20474;-71
2022/05/16 02:33:17;;;;;;;291.37;126.80;;;;;;;;;;5078413;28;20467;-73
2022/05/16 02:35:49;;;;;;;360.93;124.70;;;;;;;;;;5077883;28;20850;-73
2022/05/16 02:38:17;;;;;;;384.00;128.23;;;;;;;;;;5096544;28;20452;-73
2022/05/16 02:40:45;;;;;;;392.17;132.70;;;;;;;;;;5082738;28;20695;-73
2022/05/16 02:43:12;;;;;;;393.47;133.67;;;;;;;;;;5077779;28;20505;-73
2022/05/16 02:45:40;;;;;;;384.70;132.03;;;;;;;;;;5082928;28;20546;-72
2022/05/16 02:48:10;;;;;;;393.63;129.33;;;;;;;;;;5080904;28;20480;-73
2022/05/16 02:50:37;;;;;;;396.00;131.20;;;;;;;;;;5088545;28;20869;-73
2022/05/16 02:53:07;;;;;;;399.20;133.60;;;;;;;;;;5096326;28;20460;-73
2022/05/16 02:55:34;;;;;;;379.03;119.87;;;;;;;;;;5094346;28;20502;-72
2022/05/16 02:58:02;;;;;;;372.17;119.67;;;;;;;;;;5086262;28;20849;-72
2022/05/16 03:00:31;;;;;;;373.07;127.53;;;;;;;;;;5087954;28;20451;-73
2022/05/16 03:02:58;;;;;;;378.40;118.13;;;;;;;;;;5097632;28;20484;-72
2022/05/16 03:05:27;;;;;;;387.20;123.20;;;;;;;;;;5087221;28;20496;-73
2022/05/16 03:07:55;;;;;;;383.43;124.17;;;;;;;;;;5082857;28;20552;-72
2022/05/16 03:10:23;;;;;;;391.00;124.10;;;;;;;;;;5087145;28;20447;-73
2022/05/16 03:12:51;;;;;;;384.60;126.20;;;;;;;;;;5077484;28;20452;-73
2022/05/16 03:15:19;;;;;;;388.23;123.20;;;;;;;;;;5085633;28;20869;-71
2022/05/16 03:17:47;;;;;;;387.43;120.20;;;;;;;;;;5077408;28;20970;-73
2022/05/16 03:20:16;;;;;;;390.10;117.73;;;;;;;;;;5084333;28;20462;-73
2022/05/16 03:22:47;;;;;;;385.17;112.93;;;;;;;;;;5080204;28;20459;-73
2022/05/16 03:25:17;;;;;;;384.00;117.17;;;;;;;;;;5079883;28;20453;-73
2022/05/16 03:27:44;;;;;;;390.70;120.37;;;;;;;;;;5088148;28;20491;-73
2022/05/16 03:30:13;;;;;;;397.30;128.40;;;;;;;;;;5082039;28;20495;-73
2022/05/16 03:32:42;;;;;;;398.60;131.13;;;;;;;;;;5091101;28;20565;-73
2022/05/16 03:35:14;;;;;;;384.23;116.67;;;;;;;;;;5083686;28;20449;-74
2022/05/16 03:37:53;;;;;;;390.53;121.00;;;;;;;;;;5077035;28;20522;-73
2022/05/16 03:43:08;;;;;;;392.67;125.60;;;;;;;;;;5088277;28;20489;-72
2022/05/16 03:45:36;;;;;;;390.40;119.57;;;;;;;;;;5080659;28;20935;-72
2022/05/16 03:48:04;;;;;;;387.63;117.53;;;;;;;;;;5085197;28;20498;-72
2022/05/16 03:50:32;;;;;;;387.27;119.33;;;;;;;;;;5077025;28;20468;-73
2022/05/16 03:53:00;;;;;;;388.50;113.20;;;;;;;;;;5095357;28;20539;-72
2022/05/16 03:55:30;;;;;;;395.83;121.83;;;;;;;;;;5096364;28;20495;-73
2022/05/16 03:57:58;;;;;;;395.33;125.07;;;;;;;;;;5093815;28;20844;-73
2022/05/16 04:00:25;;;;;;;389.70;114.63;;;;;;;;;;5076724;28;20464;-71
2022/05/16 04:02:53;;;;;;;388.27;113.73;;;;;;;;;;5076580;28;20857;-73
2022/05/16 04:05:24;;;;;;;387.35;110.55;;;;;;;;;;5090101;28;20470;-72
2022/05/16 04:07:57;;;;;;;398.23;123.57;;;;;;;;;;5086616;28;20218;-73
2022/05/16 04:10:25;;;;;;;400.88;135.23;;;;;;;;;;5077529;28;21107;-71
2022/05/16 04:12:55;;;;;;;398.92;128.95;;;;;;;;;;5093012;28;20202;-71
2022/05/16 04:15:23;;;;;;;394.48;120.63;;;;;;;;;;5091070;28;20234;-73
2022/05/16 04:17:50;;;;;;;398.10;121.70;;;;;;;;;;5084216;28;20229;-72
2022/05/16 04:20:19;;;;;;;399.83;119.60;;;;;;;;;;5080545;28;20204;-72
2022/05/16 04:22:48;;;;;;;375.77;107.30;;;;;;;;;;5079253;28;20559;-73
2022/05/16 04:25:17;;;;;;;381.75;116.35;;;;;;;;;;5076690;28;20424;-73
2022/05/16 04:27:44;;;;;;;383.67;116.90;;;;;;;;;;5075715;28;20214;-73
2022/05/16 04:30:16;;;;;;;394.77;118.65;;;;;;;;;;5075763;28;20198;-72
2022/05/16 04:32:44;;;;;;;390.83;116.40;;;;;;;;;;5075545;28;20194;-72
2022/05/16 04:35:14;;;;;;;386.02;111.70;;;;;;;;;;5085506;28;20205;-73
2022/05/16 04:37:42;;;;;;;387.65;118.15;;;;;;;;;;5095541;28;20190;-73
2022/05/16 04:40:11;;;;;;;395.67;134.13;;;;;;;;;;5085459;28;20252;-72
2022/05/16 04:42:40;;;;;;;396.88;125.22;;;;;;;;;;5075577;28;20194;-73
2022/05/16 04:45:09;;;;;;;393.73;120.40;;;;;;;;;;5076498;28;20208;-73
2022/05/16 04:47:39;;;;;;;397.98;135.02;;;;;;;;;;5075566;28;20312;-72
2022/05/16 04:50:07;;;;;;;411.55;141.40;;;;;;;;;;5083693;28;20209;-73
2022/05/16 04:52:34;;;;;;;405.92;134.25;;;;;;;;;;5078311;28;20193;-73
2022/05/16 04:55:02;;;;;;;410.80;150.15;;;;;;;;;;5078462;28;20190;-73
2022/05/16 04:57:30;;;;;;;404.17;144.00;;;;;;;;;;5074802;28;20301;-73
2022/05/16 04:59:58;;;;;;;408.38;158.23;;;;;;;;;;5074056;28;20837;-72
2022/05/16 05:02:32;;;;;;;420.25;176.65;;;;;;;;;;5074055;28;20468;-72
2022/05/16 05:05:03;;;;;;;423.55;204.98;;;;;;;;;;5075707;28;20338;-72
2022/05/16 05:07:31;;;;;;;418.63;185.70;;;;;;;;;;5076546;28;20626;-73
2022/05/16 05:15:28;;;;;;;432.97;260.13;;;;;;;;;;5077679;28;20561;-73
2022/05/16 05:17:56;;;;;;;430.20;238.97;;;;;;;;;;5076780;28;20456;-73
2022/05/16 05:20:26;;;;;;;437.07;265.37;;;;;;;;;;5076796;28;20539;-72
2022/05/16 05:22:53;;;;;;;439.77;267.77;;;;;;;;;;5075757;28;20872;-70
2022/05/16 05:25:22;;;;;;;440.27;276.67;;;;;;;;;;5076058;28;20471;-71
2022/05/16 05:27:52;;;;;;;435.13;252.37;;;;;;;;;;5075637;28;20487;-73
2022/05/16 05:30:21;;;;;;;441.23;289.07;;;;;;;;;;5074647;28;20441;-73
2022/05/16 05:32:49;;;;;;;438.60;283.10;;;;;;;;;;5075103;28;20452;-73
2022/05/16 05:35:20;;;;;;;434.23;261.97;;;;;;;;;;5088378;28;20931;-72
2022/05/16 05:37:49;;;;;;;446.57;318.83;;;;;;;;;;5096554;28;20534;-73
2022/05/16 05:40:17;;;;;;;452.87;333.80;;;;;;;;;;5096013;28;20460;-71
2022/05/16 05:42:46;;;;;;;442.00;300.80;;;;;;;;;;5094099;28;20791;-72
2022/05/16 05:45:19;;;;;;;438.10;289.10;;;;;;;;;;5094687;28;20761;-72
2022/05/16 05:47:57;;;;;;;448.70;313.30;;;;;;;;;;5075691;28;20472;-71
2022/05/16 05:50:26;;;;;;;447.43;285.97;;;;;;;;;;5077952;28;20872;-73
2022/05/16 05:52:58;;;;;;;441.13;265.80;;;;;;;;;;5095744;28;20550;-71
2022/05/16 05:55:28;;;;;;;503.93;449.43;;;;;;;;;;5096763;28;20459;-72
2022/05/16 05:58:02;;;;;;;452.10;312.43;;;;;;;;;;5096142;28;21011;-73
2022/05/16 06:00:31;;;;;;;478.50;369.40;;;;;;;;;;5095853;28;20617;-72
2022/05/16 06:03:00;;;;;;;453.90;312.67;;;;;;;;;;5096337;28;20493;-72
2022/05/16 06:05:28;;;;;;;444.83;289.17;;;;;;;;;;5089154;28;20458;-73
2022/05/16 06:08:02;;;;;;;444.27;300.10;;;;;;;;;;5082377;28;20515;-72
2022/05/16 06:10:33;;;;;;;454.67;333.23;;;;;;;;;;5084335;28;20444;-73
2022/05/16 06:13:04;;;;;;;449.77;323.90;;;;;;;;;;5077557;28;20453;-72
2022/05/16 06:15:39;;;;;;;448.80;317.57;;;;;;;;;;5075022;28;20875;-73
2022/05/16 06:18:10;;;;;;;445.60;316.70;;;;;;;;;;5084507;28;20448;-72
2022/05/16 06:20:46;;;;;;;442.50;298.80;;;;;;;;;;5077058;28;20460;-73
2022/05/16 06:23:30;;;;;;;453.33;330.73;;;;;;;;;;5087652;28;20465;-71
2022/05/16 06:26:04;;;;;;;444.47;295.83;;;;;;;;;;5086516;28;20445;-72
2022/05/16 06:28:37;;;;;;;441.43;281.90;;;;;;;;;;5075871;28;20514;-71
2022/05/16 06:31:24;;;;;;;444.87;306.57;;;;;;;;;;5095858;28;20488;-71
2022/05/16 06:33:52;;;;;;;441.20;275.50;;;;;;;;;;5095885;28;20504;-72
2022/05/16 06:36:20;;;;;;;451.63;305.73;;;;;;;;;;5091969;28;20448;-72
2022/05/16 06:38:57;;;;;;;430.67;235.23;;;;;;;;;;5086557;28;20455;-72
2022/05/16 06:41:31;;;;;;;435.00;244.73;;;;;;;;;;5076058;28;20513;-73
2022/05/16 06:44:01;;;;;;;435.40;245.47;;;;;;;;;;5075838;28;20460;-73
2022/05/16 06:46:30;;;;;;;429.50;227.20;;;;;;;;;;5077188;28;20448;-73
2022/05/16 06:49:03;;;;;;;428.57;234.53;;;;;;;;;;5075698;28;20541;-74
2022/05/16 06:51:38;;;;;;;431.40;254.60;;;;;;;;;;5080416;28;20901;-73
2022/05/16 06:54:07;;;;;;;431.57;255.30;;;;;;;;;;5091845;28;20456;-73
2022/05/16 06:56:35;;;;;;;430.73;253.47;;;;;;;;;;5076847;28;20798;-71
2022/05/16 06:59:06;;;;;;;433.67;246.50;;;;;;;;;;5083061;28;20498;-71
2022/05/16 07:01:37;;;;;;;441.07;285.27;;;;;;;;;;5075410;28;20793;-71
2022/05/16 07:04:06;;;;;;;435.50;253.90;;;;;;;;;;5076114;28;20469;-70
2022/05/16 07:06:34;;;;;;;440.57;273.87;;;;;;;;;;5075031;28;20445;-72
2022/05/16 07:09:01;;;;;;;447.23;292.83;;;;;;;;;;5083895;28;20488;-72
2022/05/16 07:11:32;;;;;;;437.57;272.60;;;;;;;;;;5076003;28;20536;-71
2022/05/16 07:14:01;;;;;;;441.10;280.13;;;;;;;;;;5086219;28;20590;-71
2022/05/16 07:16:29;;;;;;;444.43;323.10;;;;;;;;;;5074856;28;20460;-72
2022/05/16 07:18:57;;;;;;;430.97;244.13;;;;;;;;;;5079794;28;20448;-70
2022/05/16 07:21:25;;;;;;;444.43;307.30;;;;;;;;;;5084068;28;20457;-72
2022/05/16 07:23:54;;;;;;;436.33;262.00;;;;;;;;;;5075331;28;20576;-73
2022/05/16 07:29:12;;;;;;;434.33;265.10;;;;;;;;;;5077158;28;20475;-73
2022/05/16 07:31:43;;;;;;;435.67;265.30;;;;;;;;;;5080939;28;20898;-71
2022/05/16 07:34:11;;;;;;;442.73;300.70;;;;;;;;;;5077229;28;21043;-71
2022/05/16 07:36:42;;;;;;;446.87;329.50;;;;;;;;;;5083008;28;20440;-70
2022/05/16 07:39:12;;;;;;;453.17;354.67;;;;;;;;;;5082482;28;20451;-71
2022/05/16 07:41:43;;;;;;;448.67;327.07;;;;;;;;;;5094948;28;20524;-71
2022/05/16 07:44:16;;;;;;;446.13;315.47;;;;;;;;;;5079024;28;20862;-70
2022/05/16 07:46:57;;;;;;;455.50;329.23;;;;;;;;;;5084633;28;20467;-71
2022/05/16 07:49:32;;;;;;;462.87;375.37;;;;;;;;;;5078493;28;20549;-72
2022/05/16 07:52:03;;;;;;;464.37;383.57;;;;;;;;;;5085972;28;20520;-72
2022/05/16 07:54:37;;;;;;;464.33;373.33;;;;;;;;;;5093174;28;20459;-71
2022/05/16 07:57:06;;;;;;;450.73;336.20;;;;;;;;;;5086100;28;20852;-72
2022/05/16 07:59:39;;;;;;;460.83;386.07;;;;;;;;;;5085804;28;20448;-72
2022/05/16 08:02:08;;;;;;;460.17;377.00;;;;;;;;;;5082589;28;20460;-71
2022/05/16 08:04:41;;;;;;;462.30;409.03;;;;;;;;;;5073731;28;20490;-72
2022/05/16 08:07:15;;;;;;;470.33;418.90;;;;;;;;;;5073929;28;20762;-73
2022/05/16 08:12:30;;;;;;;465.20;407.70;;;;;;;;;;5072925;28;20744;-71
2022/05/16 08:15:07;;;;;;;473.60;422.30;;;;;;;;;;5082558;28;20550;-71
2022/05/16 08:17:39;;;;;;;451.40;358.73;;;;;;;;;;5089513;28;20530;-71
2022/05/16 08:20:10;;;;;;;465.60;401.70;;;;;;;;;;5093483;28;20448;-72
2022/05/16 08:22:42;;;;;;;468.07;413.93;;;;;;;;;;5085824;28;20887;-72
2022/05/16 08:25:11;;;;;;;460.43;383.63;;;;;;;;;;5073539;28;20444;-73
2022/05/16 08:27:38;;;;;;;460.67;373.03;;;;;;;;;;5077024;28;20529;-72
2022/05/16 08:30:12;;;;;;;469.47;417.20;;;;;;;;;;5082519;28;20484;-73
2022/05/16 08:32:44;;;;;;;512.80;459.43;;;;;;;;;;5091250;28;20483;-73
2022/05/16 08:35:16;;;;;;;503.30;451.03;;;;;;;;;;5075019;28;20833;-73
2022/05/16 08:40:34;;;;;;;493.40;440.97;;;;;;;;;;5081355;28;20967;-72
2022/05/16 08:43:08;;;;;;;466.07;403.43;;;;;;;;;;5086454;28;20488;-73
2022/05/16 08:45:40;;;;;;;540.43;486.93;;;;;;;;;;5082347;28;20492;-73
2022/05/16 08:48:14;;;;;;;489.50;437.13;;;;;;;;;;5085619;28;20813;-74
2022/05/16 08:50:52;;;;;;;463.30;407.20;;;;;;;;;;5077873;28;20482;-73
2022/05/16 08:53:24;;;;;;;548.03;494.47;;;;;;;;;;5078920;28;20533;-72
2022/05/16 08:56:07;;;;;;;509.13;456.40;;;;;;;;;;5084224;28;20534;-72
2022/05/16 08:58:40;;;;;;;557.93;504.30;;;;;;;;;;5083975;28;20459;-73
2022/05/16 09:01:15;;;;;;;608.40;553.40;;;;;;;;;;5084207;28;20467;-73
2022/05/16 09:03:45;;;;;;;541.73;488.33;;;;;;;;;;5071824;28;21188;-73
2022/05/16 09:06:17;;;;;;;537.50;484.13;;;;;;;;;;5088598;28;20725;-73
2022/05/16 09:08:49;;;;;;;542.33;488.47;;;;;;;;;;5077984;28;20496;-73
2022/05/16 09:11:20;;;;;;;568.20;514.17;;;;;;;;;;5074799;28;20926;-72
2022/05/16 09:13:56;;;;;;;604.73;549.67;;;;;;;;;;5089768;28;20455;-73
2022/05/16 09:16:46;;;;;;;511.13;458.47;;;;;;;;;;5084431;28;21193;-73
2022/05/16 09:19:34;;;;;;;589.90;535.67;;;;;;;;;;5087376;28;20460;-73
2022/05/16 09:22:07;;;;;;;615.13;560.03;;;;;;;;;;5079491;28;20627;-72
2022/05/16 09:24:39;;;;;;;533.20;480.03;;;;;;;;;;5081859;28;20458;-73
2022/05/16 09:30:15;;;;;;;636.53;581.07;;;;;;;;;;5081904;28;20494;-73
2022/05/16 09:32:55;;;;;;;561.80;507.93;;;;;;;;;;5083439;28;20467;-74
2022/05/16 09:35:54;;;;;;;635.23;579.80;;;;;;;;;;5086261;28;20463;-73
2022/05/16 09:38:29;;;;;;;650.47;595.00;;;;;;;;;;5076852;28;20475;-71
2022/05/16 09:41:05;;;;;;;624.83;569.27;;;;;;;;;;5077039;28;20547;-72
2022/05/16 09:43:35;;;;;;;702.77;645.20;;;;;;;;;;5081365;28;20456;-72
2022/05/16 09:46:07;;;;;;;582.33;528.10;;;;;;;;;;5080125;28;21115;-72
2022/05/16 09:48:48;;;;;;;611.93;556.77;;;;;;;;;;5078754;28;20452;-71
2022/05/16 09:51:38;;;;;;;632.30;576.93;;;;;;;;;;5075843;28;20468;-74
2022/05/16 09:54:12;;;;;;;640.97;585.30;;;;;;;;;;5086728;28;20447;-73
2022/05/16 09:56:52;;;;;;;641.00;585.27;;;;;;;;;;5079701;28;20444;-72
2022/05/16 09:59:37;;;;;;;648.47;592.90;;;;;;;;;;5075142;28;20467;-71
2022/05/16 10:02:24;;;;;;;561.53;507.77;;;;;;;;;;5081960;28;20488;-72
2022/05/16 10:04:59;;;;;;;620.70;565.40;;;;;;;;;;5085852;28;20899;-72
2022/05/16 10:07:59;;;;;;;679.43;622.57;;;;;;;;;;5077693;28;20459;-72
2022/05/16 10:10:30;;;;;;;643.73;588.33;;;;;;;;;;5084211;28;20475;-72
2022/05/16 10:13:01;;;;;;;616.07;559.97;;;;;;;;;;5080010;28;20475;-73
2022/05/16 10:15:37;;;;;;;679.40;622.83;;;;;;;;;;5081555;28;20451;-73
2022/05/16 10:18:07;;;;;;;666.13;609.73;;;;;;;;;;5084387;28;20459;-73
2022/05/16 10:20:42;;;;;;;631.63;575.97;;;;;;;;;;5084181;28;20461;-73
2022/05/16 10:23:24;;;;;;;606.37;550.80;;;;;;;;;;5078678;28;20555;-71
2022/05/16 10:26:01;;;;;;;691.07;634.20;;;;;;;;;;5080848;28;20738;-72
2022/05/16 10:28:33;;;;;;;679.30;622.77;;;;;;;;;;5077703;28;20456;-72
2022/05/16 10:34:01;;;;;;;714.70;656.80;;;;;;;;;;5075026;28;20522;-72
2022/05/16 10:36:34;;;;;;;731.40;673.63;;;;;;;;;;5080862;28;20507;-71
2022/05/16 10:39:05;;;;;;;723.93;666.03;;;;;;;;;;5078924;28;20535;-70
2022/05/16 10:41:38;;;;;;;711.70;654.43;;;;;;;;;;5081226;28;20460;-73
2022/05/16 10:44:17;;;;;;;655.70;599.90;;;;;;;;;;5084707;28;20863;-72
2022/05/16 10:46:48;;;;;;;636.33;580.60;;;;;;;;;;5076069;28;20461;-71
2022/05/16 10:49:21;;;;;;;741.23;683.17;;;;;;;;;;5081083;28;20484;-71
2022/05/16 10:51:58;;;;;;;744.93;686.97;;;;;;;;;;5085130;28;20463;-71
2022/05/16 10:54:32;;;;;;;729.50;671.53;;;;;;;;;;5083612;28;20517;-72
2022/05/16 10:57:22;;;;;;;636.27;580.77;;;;;;;;;;5082292;28;20522;-72
2022/05/16 11:00:00;;;;;;;655.17;599.50;;;;;;;;;;5082355;28;21091;-73
2022/05/16 11:02:41;;;;;;;717.03;659.93;;;;;;;;;;5092702;28;20480;-72
2022/05/16 11:08:45;;;;;;;747.53;689.37;;;;;;;;;;5077692;28;20468;-72
2022/05/16 11:11:18;;;;;;;666.53;610.27;;;;;;;;;;5082878;28;20904;-72
2022/05/16 11:13:49;;;;;;;710.23;652.97;;;;;;;;;;5082640;28;20463;-72
2022/05/16 11:16:28;;;;;;;773.33;714.47;;;;;;;;;;5085728;28;20567;-73
2022/05/16 11:18:59;;;;;;;759.47;701.33;;;;;;;;;;5088018;28;20550;-71
2022/05/16 11:21:33;;;;;;;787.10;727.80;;;;;;;;;;5085541;28;20536;-72
2022/05/16 11:24:07;;;;;;;739.30;681.27;;;;;;;;;;5093468;28;20459;-73
2022/05/16 11:26:40;;;;;;;753.37;694.60;;;;;;;;;;5075182;28;20449;-72
2022/05/16 11:29:23;;;;;;;707.50;651.00;;;;;;;;;;5071468;28;20459;-72
2022/05/16 11:32:06;;;;;;;735.87;678.53;;;;;;;;;;5073599;28;20475;-73
2022/05/16 11:34:51;;;;;;;697.83;641.07;;;;;;;;;;5076702;28;20463;-72
2022/05/16 11:37:24;;;;;;;665.70;609.80;;;;;;;;;;5078102;28;20467;-72
2022/05/16 11:40:02;;;;;;;714.83;657.07;;;;;;;;;;5073972;28;20480;-73
2022/05/16 11:42:34;;;;;;;672.20;615.67;;;;;;;;;;5079238;28;20459;-73
2022/05/16 11:45:19;;;;;;;702.00;644.87;;;;;;;;;;5080915;28;20467;-73
2022/05/16 11:47:51;;;;;;;745.10;687.43;;;;;;;;;;5060827;28;20469;-75
2022/05/16 11:50:24;;;;;;;685.33;628.30;;;;;;;;;;5061902;28;20784;-73
2022/05/16 11:52:56;;;;;;;720.27;662.83;;;;;;;;;;5068008;28;20516;-75
2022/05/16 12:01:06;;;;;;;793.10;733.57;;;;;;;;;;5073960;28;20447;-73
2022/05/16 12:03:43;;;;;;;697.70;641.30;;;;;;;;;;5056793;28;21247;-73
2022/05/16 12:06:17;;;;;;;783.83;724.77;;;;;;;;;;5056149;28;20445;-74
2022/05/16 12:08:46;;;;;;;693.07;636.43;;;;;;;;;;5063475;28;20472;-73
2022/05/16 12:11:33;;;;;;;730.87;673.43;;;;;;;;;;5061941;28;20476;-73
2022/05/16 12:14:04;;;;;;;723.10;665.73;;;;;;;;;;5053634;28;20449;-73
2022/05/16 12:16:46;;;;;;;678.33;622.07;;;;;;;;;;5069934;28;20471;-72
2022/05/16 12:19:48;;;;;;;711.63;654.47;;;;;;;;;;5054522;28;20465;-73
2022/05/16 12:22:21;;;;;;;699.57;642.37;;;;;;;;;;5064188;28;20459;-72
2022/05/16 12:25:13;;;;;;;761.00;702.93;;;;;;;;;;5062825;28;20453;-72
2022/05/16 12:28:15;;;;;;;765.90;706.80;;;;;;;;;;5053689;28;20570;-73
2022/05/16 12:30:58;;;;;;;717.03;659.30;;;;;;;;;;5055936;28;20592;-73
2022/05/16 12:33:53;;;;;;;711.90;654.47;;;;;;;;;;5067576;28;20475;-73
2022/05/16 12:36:25;;;;;;;750.07;692.50;;;;;;;;;;5058387;28;20476;-73
2022/05/16 12:38:57;;;;;;;754.40;695.97;;;;;;;;;;5055629;28;20442;-73
2022/05/16 12:41:51;;;;;;;786.53;727.37;;;;;;;;;;5068251;28;20446;-73
2022/05/16 12:44:42;;;;;;;692.67;636.43;;;;;;;;;;5066070;28;20471;-73
2022/05/16 12:47:27;;;;;;;762.23;703.77;;;;;;;;;;5073773;28;20457;-73
2022/05/16 12:50:19;;;;;;;692.80;636.67;;;;;;;;;;5068609;28;20828;-74
2022/05/16 12:53:18;;;;;;;749.03;691.70;;;;;;;;;;5057694;28;20468;-72
2022/05/16 12:55:59;;;;;;;797.90;739.70;;;;;;;;;;4982220;28;20468;-73
2022/05/16 12:58:29;;;;;;;771.27;713.13;;;;;;;;;;5047991;28;20452;-73
2022/05/16 13:01:17;;;;;;;741.70;685.00;;;;;;;;;;5066396;28;20896;-72
2022/05/16 13:03:55;;;;;;;700.70;644.63;;;;;;;;;;5068129;28;20450;-73
2022/05/16 13:06:37;;;;;;;771.63;713.50;;;;;;;;;;5059289;28;20526;-75
2022/05/16 13:09:14;;;;;;;814.27;754.83;;;;;;;;;;5065732;28;21081;-72
2022/05/16 13:11:47;;;;;;;729.03;671.63;;;;;;;;;;5054308;28;20461;-72
2022/05/16 13:14:19;;;;;;;747.77;689.77;;;;;;;;;;5061930;28;20526;-74
2022/05/16 13:17:06;;;;;;;802.90;744.30;;;;;;;;;;5054123;28;20449;-74
2022/05/16 13:19:41;;;;;;;820.13;760.93;;;;;;;;;;5057626;28;20461;-73
2022/05/16 13:22:22;;;;;;;824.40;765.13;;;;;;;;;;5061638;28;20958;-73
2022/05/16 13:24:57;;;;;;;768.67;710.83;;;;;;;;;;5052391;28;20461;-73
2022/05/16 13:30:16;;;;;;;811.47;752.87;;;;;;;;;;5067328;28;20624;-73
2022/05/16 13:32:44;;;;;;;762.63;706.00;;;;;;;;;;5074076;28;20997;-73
2022/05/16 13:35:17;;;;;;;709.00;653.17;;;;;;;;;;5064614;28;21067;-74
2022/05/16 13:37:46;;;;;;;708.37;652.87;;;;;;;;;;5055273;28;20553;-73
2022/05/16 13:40:25;;;;;;;753.63;696.83;;;;;;;;;;5062580;28;20570;-74
2022/05/16 13:42:58;;;;;;;701.80;646.63;;;;;;;;;;5063296;28;20467;-73
2022/05/16 13:45:38;;;;;;;771.83;713.93;;;;;;;;;;5059298;28;20438;-72
2022/05/16 13:48:13;;;;;;;786.83;728.87;;;;;;;;;;5059739;28;20520;-72
2022/05/16 13:50:49;;;;;;;638.37;584.37;;;;;;;;;;5064992;28;22212;-74
2022/05/16 13:53:17;;;;;;;719.13;662.83;;;;;;;;;;5067185;28;20460;-72
2022/05/16 13:55:51;;;;;;;831.37;771.27;;;;;;;;;;5065449;28;20449;-73
2022/05/16 13:58:22;;;;;;;757.47;699.83;;;;;;;;;;5057501;28;20465;-72
2022/05/16 14:00:53;;;;;;;773.80;715.77;;;;;;;;;;5063944;28;20448;-73
2022/05/16 14:03:35;;;;;;;816.70;757.40;;;;;;;;;;5063914;28;20461;-73
2022/05/16 14:06:06;;;;;;;818.93;754.83;;;;;;;;;;5056887;28;20442;-74
2022/05/16 14:08:38;;;;;;;851.93;791.97;;;;;;;;;;5065215;28;20484;-74
2022/05/16 14:11:07;;;;;;;738.03;681.13;;;;;;;;;;5062054;28;20488;-74
2022/05/16 14:13:38;;;;;;;838.97;779.57;;;;;;;;;;5060177;28;20495;-73
2022/05/16 14:16:11;;;;;;;819.33;760.23;;;;;;;;;;5059381;28;20460;-73
2022/05/16 14:18:46;;;;;;;782.47;724.27;;;;;;;;;;5065594;28;20520;-74
2022/05/16 14:21:23;;;;;;;806.97;748.03;;;;;;;;;;5062126;28;20979;-73
2022/05/16 14:24:02;;;;;;;775.67;717.80;;;;;;;;;;5057195;28;20527;-74
2022/05/16 14:26:48;;;;;;;795.80;738.13;;;;;;;;;;5055418;28;20476;-73
2022/05/16 14:29:20;;;;;;;785.83;728.13;;;;;;;;;;5065021;28;20903;-72
2022/05/16 14:32:09;;;;;;;789.83;731.53;;;;;;;;;;5063911;28;20488;-73
2022/05/16 14:34:41;;;;;;;776.80;719.50;;;;;;;;;;5061032;28;20613;-72
2022/05/16 14:37:23;;;;;;;763.53;705.83;;;;;;;;;;5065540;28;20792;-73
2022/05/16 14:39:54;;;;;;;803.00;743.60;;;;;;;;;;5063916;28;20452;-73
2022/05/16 14:42:32;;;;;;;811.93;752.97;;;;;;;;;;5066763;28;20453;-72
2022/05/16 14:45:07;;;;;;;789.57;731.40;;;;;;;;;;5069971;28;21120;-72
2022/05/16 14:47:43;;;;;;;834.60;775.13;;;;;;;;;;5061187;28;20470;-72
2022/05/16 14:50:28;;;;;;;756.77;698.97;;;;;;;;;;5064078;28;20548;-71
2022/05/16 14:53:14;;;;;;;792.20;733.63;;;;;;;;;;5056744;28;20497;-71
2022/05/16 14:55:54;;;;;;;806.77;747.87;;;;;;;;;;5063533;28;20960;-73
2022/05/16 14:58:23;;;;;;;823.40;763.97;;;;;;;;;;5064221;28;20456;-72
2022/05/16 15:06:33;;;;;;;726.70;670.13;;;;;;;;;;5060789;28;20452;-73
2022/05/16 15:12:19;;;;;;;804.17;745.50;;;;;;;;;;5041400;28;20472;-71
2022/05/16 15:15:02;;;;;;;746.03;688.83;;;;;;;;;;5055829;28;20874;-71